Morristown, South Dakota
Current Conditions -  °F | °C
As of 8:53 AM on Friday 19 Dec 2014 (Local Time) from KHEI Reporting Station
Broken Clouds Broken Clouds  
Wind Chill: 22°   Ceiling: 11000
Heat Index: 29°   Visibility: 10mi
Dew Point: 24°   Wind: 7mph
Humidity: 82%   Direction: 310°NW
Pressure: 29.95"   Gusts: NA
Location:  45.94°N, 101.72°W
Report Text: KHEI 191553Z AUTO 31006KT 10SM BKN110 M02/M04 A2995 RMK AO2 SLP176 T10171044
Loading
Personal Weather Stations






























Interactive Weather Map New forecast layout! Learn more

10-Day Weather Forecast

Advertisements
Track Severe Weather on mobile